Latest Weather Observations for Port Kembla Harbour

IDN60801

Issued at 7:35 pm EST Friday 22 August 2014 (issued every 30 minutes, with the page automatically refreshed every 10 minutes)

About weather observations | Map of weather stations | Latest weather observations for NSW | Other Formats
Station Details ID: 068253 Name: PORT KEMBLA NTC AWS Lat: -34.47 Lon: 150.91 Height: 0.0 m
Data from the previous 72 hours. | See also: Recent months for locations in New South Wales
Date/Time
EST
Temp
°C
App
Temp
°C
Dew
Point
Rel
Hum
%
Delta-T
°C
Wind Press
QNH
hPa
Press
MSL
hPa
Rain
since 9 am
mm
Dir
 
Spd
km/h
Gust
km/h
Spd
kts
Gust
kts
22/07:30pm 13.6 - - - - WSW 13 17 7 9 1030.4 - -
22/07:00pm 13.6 - - - - WSW 9 15 5 8 1030.3 1030.3 -
22/06:30pm 13.6 - - - - SW 7 11 4 6 1030.0 - -
22/06:00pm 14.1 - - - - SSW 7 13 4 7 1029.8 1029.8 -
22/05:30pm 14.2 - - - - SSW 7 15 4 8 1029.5 - -
22/05:00pm 15.0 - - - - SSW 11 19 6 10 1029.3 1029.3 -
22/04:30pm 15.2 - - - - SSW 9 17 5 9 1029.1 - -
22/04:00pm 14.8 - - - - SE 13 22 7 12 1029.1 1029.1 -
22/03:30pm 15.5 - - - - S 11 22 6 12 1029.0 - -
22/03:00pm 15.6 - - - - S 13 24 7 13 1029.1 1029.1 -
22/02:30pm 15.7 - - - - S 13 24 7 13 1029.2 - -
22/02:00pm 16.0 - - - - S 11 22 6 12 1029.3 1029.3 -
22/01:30pm 15.8 - - - - S 11 20 6 11 1029.5 - -
22/01:00pm 15.8 - - - - S 11 20 6 11 1029.7 1029.7 -
22/12:30pm 15.5 - - - - S 11 22 6 12 1030.3 - -
22/12:00pm 14.9 - - - - S 11 20 6 11 1030.8 1030.8 -
22/11:30am 15.2 - - - - S 13 28 7 15 1031.2 - -
22/11:00am 14.9 - - - - S 13 22 7 12 1031.5 1031.5 -
22/10:30am 14.9 - - - - S 11 20 6 11 1031.9 - -
22/10:00am 14.5 - - - - SSW 9 19 5 10 1031.9 1031.9 -
22/09:30am 14.9 - - - - S 9 19 5 10 1032.0 - -
22/09:00am 13.6 - - - - W 6 9 3 5 1031.8 1031.8 -
22/08:30am 12.7 - - - - SW 7 9 4 5 1031.6 - -
22/08:00am 12.8 - - - - SW 9 15 5 8 1031.3 1031.3 -
22/07:30am 12.5 - - - - WSW 11 17 6 9 1031.0 - -
22/07:00am 11.9 - - - - SW 9 11 5 6 1030.6 1030.6 -
22/06:30am 12.1 - - - - WSW 9 11 5 6 1030.3 - -
22/06:00am 11.9 - - - - SW 7 11 4 6 1030.0 1030.0 -
22/05:30am 11.9 - - - - SW 9 11 5 6 1029.8 - -
22/05:00am 12.2 - - - - WSW 9 13 5 7 1029.7 1029.7 -
22/04:30am 12.3 - - - - SW 9 13 5 7 1029.6 - -
22/04:00am 12.3 - - - - WSW 9 13 5 7 1029.5 1029.5 -
22/03:30am 12.2 - - - - WSW 11 15 6 8 1029.5 - -
22/03:00am 12.5 - - - - WSW 11 15 6 8 1029.6 1029.6 -
22/02:30am 12.4 - - - - WSW 11 20 6 11 1029.7 - -
22/02:00am 12.6 - - - - WSW 13 19 7 10 1029.8 1029.8 -
22/01:30am 12.9 - - - - SE 19 30 10 16 1030.2 - -
22/01:00am 13.3 - - - - SW 7 13 4 7 1030.3 1030.3 -
22/12:30am 12.7 - - - - WSW 9 17 5 9 1030.5 - -
22/12:00am 12.7 - - - - WSW 6 11 3 6 1030.3 1030.3 -
 
Date/Time
EST
Temp
°C
App
Temp
°C
Dew
Point
Rel
Hum
%
Delta-T
°C
Wind Press
QNH
hPa
Press
MSL
hPa
Rain
since 9 am
mm
Dir
 
Spd
km/h
Gust
km/h
Spd
kts
Gust
kts
21/11:30pm 12.8 - - - - SW 11 17 6 9 1030.3 - -
21/11:00pm 12.8 - - - - WSW 9 13 5 7 1030.3 1030.3 -
21/10:30pm 12.7 - - - - SW 7 13 4 7 1030.2 - -
21/10:00pm 12.8 - - - - WSW 13 19 7 10 1030.3 1030.3 -
21/09:30pm 13.3 - - - - WSW 9 13 5 7 1030.3 - -
21/09:00pm 13.6 - - - - SW 7 13 4 7 1030.3 1030.3 -
21/08:30pm 14.2 - - - - SE 19 28 10 15 1030.1 - -
21/08:00pm 12.8 - - - - S 6 13 3 7 1029.9 1029.9 -
21/07:30pm 13.2 - - - - SE 20 32 11 17 1030.0 - -
21/07:00pm 13.8 - - - - SE 26 35 14 19 1029.5 1029.5 -
21/06:53pm 14.0 - - - - SE 28 35 15 19 1029.4 - -
21/06:30pm 14.0 - - - - S 7 11 4 6 1029.2 - -
21/06:00pm 14.2 - - - - SW 9 15 5 8 1028.8 1028.8 -
21/05:30pm 14.4 - - - - SW 11 17 6 9 1028.6 - -
21/05:00pm 14.5 - - - - S 9 19 5 10 1028.3 1028.3 -
21/04:30pm 14.3 - - - - S 11 22 6 12 1028.0 - -
21/04:00pm 14.7 - - - - S 11 24 6 13 1027.9 1027.9 -
21/03:30pm 15.1 - - - - SSW 15 28 8 15 1027.7 - -
21/03:00pm 15.3 - - - - SSW 15 30 8 16 1027.5 1027.5 -
21/02:30pm 15.6 - - - - S 13 24 7 13 1027.4 - -
21/02:00pm 15.4 - - - - SSW 13 22 7 12 1027.6 1027.6 -
21/01:30pm 15.5 - - - - SSW 13 24 7 13 1027.7 - -
21/01:00pm 15.6 - - - - SSW 11 22 6 12 1028.1 1028.1 -
21/12:30pm 14.7 - - - - SSW 13 24 7 13 1028.4 - -
21/12:00pm 14.8 - - - - SSW 15 26 8 14 1028.8 1028.8 -
21/11:30am 13.9 - - - - WSW 11 17 6 9 1029.0 - -
21/11:00am 13.1 - - - - WSW 17 24 9 13 1029.3 1029.3 -
21/10:30am 12.3 - - - - WSW 19 26 10 14 1029.4 - -
21/10:00am 12.3 - - - - SW 17 24 9 13 1029.5 1029.5 -
21/09:30am 12.7 - - - - WSW 17 24 9 13 1029.4 - -
21/09:00am 12.3 - - - - WSW 17 22 9 12 1029.2 1029.2 -
21/08:30am 12.0 - - - - WSW 17 24 9 13 1029.2 - -
21/08:00am 11.7 - - - - WSW 13 17 7 9 1028.9 1028.9 -
21/07:30am 11.1 - - - - WSW 13 17 7 9 1028.6 - -
21/07:00am 11.2 - - - - WSW 13 19 7 10 1028.3 1028.3 -
21/06:30am 11.3 - - - - SW 7 11 4 6 1028.0 - -
21/06:00am 11.5 - - - - WSW 9 15 5 8 1027.6 1027.6 -
21/05:30am 11.7 - - - - SW 11 19 6 10 1027.3 - -
21/05:00am 11.7 - - - - WSW 13 19 7 10 1027.1 1027.1 -
21/04:30am 11.9 - - - - WSW 15 19 8 10 1027.0 - -
21/04:00am 11.9 - - - - SW 13 19 7 10 1027.0 1027.0 -
21/03:30am 12.4 - - - - SSW 15 24 8 13 1026.9 - -
21/03:00am 12.1 - - - - SW 9 15 5 8 1026.7 1026.7 -
21/02:30am 11.4 - - - - SW 7 11 4 6 1026.6 - -
21/02:00am 11.7 - - - - WSW 9 13 5 7 1026.6 1026.6 -
21/01:30am 11.8 - - - - WSW 11 15 6 8 1026.7 - -
21/01:00am 11.8 - - - - WSW 9 15 5 8 1026.8 1026.8 -
21/12:30am 11.6 - - - - WSW 11 15 6 8 1027.0 - -
21/12:00am 11.3 - - - - WSW 9 11 5 6 1027.0 1027.0 -
 
Date/Time
EST
Temp
°C
App
Temp
°C
Dew
Point
Rel
Hum
%
Delta-T
°C
Wind Press
QNH
hPa
Press
MSL
hPa
Rain
since 9 am
mm
Dir
 
Spd
km/h
Gust
km/h
Spd
kts
Gust
kts
20/11:30pm 11.4 - - - - WSW 9 13 5 7 1026.9 - -
20/11:00pm 11.5 - - - - WSW 11 15 6 8 1026.8 1026.8 -
20/10:30pm 12.0 - - - - WSW 13 17 7 9 1027.0 - -
20/10:00pm 11.9 - - - - WSW 11 15 6 8 1027.1 1027.1 -
20/09:30pm 11.9 - - - - WSW 9 13 5 7 1027.2 - -
20/09:00pm 12.0 - - - - WSW 11 13 6 7 1027.1 1027.1 -
20/08:30pm 12.1 - - - - WSW 9 11 5 6 1027.0 - -
20/08:00pm 12.3 - - - - WSW 11 13 6 7 1026.6 1026.6 -
20/07:30pm 13.1 - - - - WSW 11 19 6 10 1026.5 - -
20/07:00pm 13.3 - - - - WSW 11 17 6 9 1026.3 1026.3 -
20/06:30pm 13.9 - - - - SW 13 20 7 11 1025.9 - -
20/06:00pm 14.5 - - - - S 13 28 7 15 1025.7 1025.7 -
20/05:30pm 14.4 - - - - S 11 24 6 13 1025.3 - -
20/05:00pm 14.4 - - - - S 13 26 7 14 1025.0 1025.0 -
20/04:30pm 14.7 - - - - S 11 22 6 12 1024.8 - -
20/04:00pm 14.6 - - - - S 11 26 6 14 1024.6 1024.6 -
20/03:30pm 15.0 - - - - S 9 22 5 12 1024.4 - -
20/03:00pm 15.0 - - - - S 13 24 7 13 1024.2 1024.2 -
20/02:30pm 14.9 - - - - S 13 30 7 16 1024.1 - -
20/02:00pm 15.1 - - - - S 13 24 7 13 1024.0 1024.0 -
20/01:30pm 15.1 - - - - S 13 28 7 15 1024.0 - -
20/01:00pm 14.9 - - - - S 13 28 7 15 1024.1 1024.1 -
20/12:30pm 14.9 - - - - S 11 20 6 11 1024.3 - -
20/12:00pm 14.8 - - - - S 11 22 6 12 1024.7 1024.7 -
20/11:30am 14.3 - - - - S 13 24 7 13 1024.9 - -
20/11:00am 14.3 - - - - SSW 15 28 8 15 1025.0 1025.0 -
20/10:30am 13.7 - - - - SW 20 32 11 17 1025.0 - -
20/10:00am 13.5 - - - - SW 22 35 12 19 1025.0 1025.0 -
20/09:30am 13.3 - - - - SW 22 30 12 16 1024.9 - -
20/09:00am 12.9 - - - - SW 19 30 10 16 1024.8 1024.8 -
20/08:30am 12.6 - - - - SW 17 24 9 13 1024.5 - -
20/08:00am 12.2 - - - - WSW 13 19 7 10 1024.4 1024.4 -
20/07:30am 11.6 - - - - SW 15 22 8 12 1024.1 - -
20/07:00am 11.6 - - - - WSW 17 24 9 13 1023.7 1023.7 -
20/06:30am 11.4 - - - - WSW 19 26 10 14 1023.4 - -
20/06:00am 11.2 - - - - WSW 20 32 11 17 1023.0 1023.0 -

Other Formats:

Comma delimited format used in spreadsheet applications
http://www.bom.gov.au/fwo/IDN60801/IDN60801.95745.axf

JavaScript Object Notation format (JSON) in row-major order
http://www.bom.gov.au/fwo/IDN60801/IDN60801.95745.json